createdAt,value
2023-05-19T00:01:00.703Z,77.37
2023-05-19T00:03:29.440Z,77.02
2023-05-19T00:05:59.250Z,81.17
2023-05-19T00:08:31.645Z,83.05
2023-05-19T00:11:00.247Z,83.11
2023-05-19T00:13:28.678Z,84.00
2023-05-19T00:15:57.156Z,82.73
2023-05-19T00:18:26.832Z,84.92
2023-05-19T00:20:54.830Z,85.87
2023-05-19T00:23:22.936Z,81.20
2023-05-19T00:25:51.647Z,83.37
2023-05-19T00:28:19.682Z,82.02
2023-05-19T00:30:48.300Z,82.50
2023-05-19T00:33:16.564Z,80.33
2023-05-19T00:35:44.630Z,84.98
2023-05-19T00:38:12.681Z,82.89
2023-05-19T00:40:41.191Z,84.37
2023-05-19T00:43:09.264Z,73.78
2023-05-19T00:45:37.188Z,81.36
2023-05-19T00:48:06.269Z,80.32
2023-05-19T00:50:34.616Z,86.80
2023-05-19T00:53:02.996Z,82.17
2023-05-19T00:55:34.043Z,86.52
2023-05-19T00:58:02.214Z,86.63
2023-05-19T01:00:31.405Z,86.21
2023-05-19T01:03:00.221Z,88.51
2023-05-19T01:05:30.855Z,85.66
2023-05-19T01:07:59.564Z,86.85
2023-05-19T01:10:27.600Z,86.97
2023-05-19T01:12:55.663Z,90.37
2023-05-19T01:15:27.548Z,93.39
2023-05-19T01:18:08.708Z,89.40
2023-05-19T01:20:43.146Z,97.36
2023-05-19T01:23:57.937Z,96.92
2023-05-19T01:27:07.649Z,95.52
2023-05-19T01:30:12.181Z,95.22
2023-05-19T01:32:42.704Z,97.64
2023-05-19T01:35:13.226Z,97.91
2023-05-19T01:37:43.024Z,96.03
2023-05-19T01:40:11.760Z,94.31
2023-05-19T01:42:41.848Z,97.24
2023-05-19T01:45:10.920Z,95.52
2023-05-19T01:47:43.010Z,97.38
2023-05-19T01:50:12.063Z,99.00
2023-05-19T01:52:40.144Z,98.95
2023-05-19T01:55:09.824Z,99.65
2023-05-19T01:57:54.846Z,98.57
2023-05-19T02:00:52.517Z,99.39
2023-05-19T02:03:57.926Z,99.34
2023-05-19T02:07:03.467Z,98.51
2023-05-19T02:09:45.432Z,99.00
2023-05-19T02:12:26.936Z,96.90
2023-05-19T02:15:18.334Z,97.74
2023-05-19T02:17:48.801Z,97.67
2023-05-19T02:20:37.209Z,96.10
2023-05-19T02:23:07.814Z,95.96
2023-05-19T02:25:36.080Z,94.50
2023-05-19T02:28:04.268Z,94.96
2023-05-19T02:30:33.047Z,94.38
2023-05-19T02:33:02.532Z,95.38
2023-05-19T02:35:30.598Z,94.98
2023-05-19T02:37:59.250Z,93.87
2023-05-19T02:40:27.353Z,92.38
2023-05-19T02:42:56.457Z,91.13
2023-05-19T02:45:24.905Z,94.20
2023-05-19T02:47:52.960Z,93.15
2023-05-19T02:50:22.996Z,93.95
2023-05-19T02:52:53.055Z,93.81
2023-05-19T02:55:21.342Z,93.87
2023-05-19T02:57:49.433Z,94.23
2023-05-19T03:00:17.927Z,94.92
2023-05-19T03:02:46.789Z,94.38
2023-05-19T03:05:14.900Z,95.00
2023-05-19T03:07:43.110Z,94.90
2023-05-19T03:10:11.327Z,94.40
2023-05-19T03:12:39.498Z,95.41
2023-05-19T03:15:08.942Z,95.34
2023-05-19T03:17:37.266Z,95.22
2023-05-19T03:20:06.099Z,95.21
2023-05-19T03:22:34.668Z,95.99
2023-05-19T03:25:03.861Z,96.37
2023-05-19T03:27:34.342Z,97.09
2023-05-19T03:30:04.980Z,97.21
2023-05-19T03:32:38.492Z,97.90
2023-05-19T03:35:07.289Z,97.35
2023-05-19T03:37:35.489Z,97.51
2023-05-19T03:40:05.757Z,96.36
2023-05-19T03:42:37.030Z,97.90
2023-05-19T03:45:06.250Z,97.51
2023-05-19T03:47:34.853Z,96.91
2023-05-19T03:50:04.007Z,95.59
2023-05-19T03:52:33.983Z,96.49
2023-05-19T03:55:04.906Z,96.54
2023-05-19T03:57:33.984Z,96.44
2023-05-19T04:00:02.491Z,96.97
2023-05-19T04:02:41.479Z,96.53
2023-05-19T04:05:11.243Z,96.04
2023-05-19T04:07:39.223Z,97.21
2023-05-19T04:10:08.134Z,97.35
2023-05-19T04:12:36.559Z,96.93
2023-05-19T04:15:06.345Z,95.82
2023-05-19T04:17:34.661Z,96.31
2023-05-19T04:20:03.166Z,97.36
2023-05-19T04:22:32.538Z,98.18
2023-05-19T04:25:00.896Z,96.95
2023-05-19T04:27:32.466Z,95.91
2023-05-19T04:30:00.409Z,94.68
2023-05-19T04:32:29.775Z,93.92
2023-05-19T04:34:59.227Z,94.75
2023-05-19T04:37:28.360Z,95.09
2023-05-19T04:39:56.364Z,94.84
2023-05-19T04:42:26.469Z,93.77
2023-05-19T04:44:55.039Z,93.64
2023-05-19T04:47:29.099Z,89.09
2023-05-19T04:49:57.785Z,91.58
2023-05-19T04:52:25.785Z,92.53
2023-05-19T04:54:54.634Z,91.62
2023-05-19T04:57:24.386Z,90.89
2023-05-19T04:59:52.572Z,90.03
2023-05-19T05:02:21.693Z,92.10
2023-05-19T05:04:50.286Z,92.46
2023-05-19T05:07:18.346Z,91.77
2023-05-19T05:09:46.360Z,91.34
2023-05-19T05:12:15.918Z,89.97
2023-05-19T05:14:44.143Z,90.19
2023-05-19T05:17:13.492Z,89.21
2023-05-19T05:19:43.009Z,88.67
2023-05-19T05:22:11.663Z,89.48
2023-05-19T05:24:40.372Z,86.81
2023-05-19T05:27:10.598Z,86.55
2023-05-19T05:29:38.761Z,88.48
2023-05-19T05:32:08.362Z,89.01
2023-05-19T05:34:40.781Z,89.19
2023-05-19T05:37:08.871Z,88.08
2023-05-19T05:39:37.910Z,87.29
2023-05-19T05:42:06.370Z,85.35
2023-05-19T05:44:36.056Z,85.57
2023-05-19T05:47:05.296Z,83.44
2023-05-19T05:49:38.477Z,83.10
2023-05-19T05:52:09.536Z,79.79
2023-05-19T05:54:38.770Z,81.62
2023-05-19T05:57:08.650Z,82.19
2023-05-19T05:59:36.762Z,81.43
2023-05-19T06:02:05.393Z,81.00
2023-05-19T06:04:34.337Z,79.58
2023-05-19T06:07:02.353Z,80.32
2023-05-19T06:09:31.566Z,80.47
2023-05-19T06:12:00.673Z,78.34
2023-05-19T06:14:31.377Z,78.45
2023-05-19T06:17:05.578Z,79.35
2023-05-19T06:19:33.572Z,78.38
2023-05-19T06:22:01.502Z,79.00
2023-05-19T06:24:30.951Z,78.65
2023-05-19T06:26:59.078Z,78.82
2023-05-19T06:29:27.179Z,77.74
2023-05-19T06:31:56.882Z,74.75
2023-05-19T06:34:26.200Z,75.60
2023-05-19T06:36:54.689Z,76.54
2023-05-19T06:39:23.519Z,76.64
2023-05-19T06:41:51.611Z,77.54
2023-05-19T06:44:26.634Z,77.21
2023-05-19T06:46:54.799Z,77.04
2023-05-19T06:49:22.824Z,77.33
2023-05-19T06:51:51.496Z,76.71
2023-05-19T06:54:19.545Z,77.52
2023-05-19T06:56:47.417Z,78.69
2023-05-19T06:59:16.620Z,78.03
2023-05-19T07:01:45.499Z,78.54
2023-05-19T07:04:13.728Z,78.18
2023-05-19T07:06:42.180Z,78.74
2023-05-19T07:09:10.398Z,75.97
2023-05-19T07:11:40.088Z,76.87
2023-05-19T07:14:09.498Z,76.91
2023-05-19T07:16:38.540Z,75.87
2023-05-19T07:19:06.786Z,76.90
2023-05-19T07:21:35.198Z,76.05
2023-05-19T07:24:03.185Z,74.46
2023-05-19T07:26:31.364Z,72.63
2023-05-19T07:28:59.645Z,74.20
2023-05-19T07:31:27.897Z,74.11
2023-05-19T07:33:55.949Z,69.50
2023-05-19T07:36:24.462Z,69.69
2023-05-19T07:38:52.620Z,70.78
2023-05-19T07:41:21.969Z,70.00
2023-05-19T07:44:08.040Z,72.04
2023-05-19T07:46:48.657Z,67.86
2023-05-19T07:49:17.120Z,67.96
2023-05-19T07:51:45.455Z,69.99
2023-05-19T07:54:13.551Z,70.32
2023-05-19T07:56:42.014Z,70.86
2023-05-19T07:59:10.229Z,71.80
2023-05-19T08:01:38.394Z,71.83
2023-05-19T08:04:07.608Z,71.67
2023-05-19T08:06:36.469Z,72.54
2023-05-19T08:09:05.698Z,73.00
2023-05-19T08:11:34.178Z,72.84
2023-05-19T08:14:02.266Z,73.45
2023-05-19T08:16:30.526Z,72.16
2023-05-19T08:19:01.302Z,73.05
2023-05-19T08:21:29.437Z,74.68
2023-05-19T08:23:57.917Z,74.38
2023-05-19T08:26:26.696Z,74.03
2023-05-19T08:28:55.021Z,74.18
2023-05-19T08:31:23.167Z,74.36
2023-05-19T08:33:51.708Z,74.41
2023-05-19T08:36:20.170Z,74.18
2023-05-19T08:38:48.214Z,74.55
2023-05-19T08:41:16.922Z,74.85
2023-05-19T08:43:45.802Z,73.82
2023-05-19T08:46:16.944Z,72.87
2023-05-19T08:48:50.131Z,72.53
2023-05-19T08:51:36.352Z,73.64
2023-05-19T08:54:18.466Z,74.04
2023-05-19T08:56:47.083Z,73.42
2023-05-19T08:59:16.470Z,73.45
2023-05-19T09:01:46.861Z,73.29
2023-05-19T09:04:17.497Z,73.13
2023-05-19T09:06:45.772Z,72.29
2023-05-19T09:09:14.121Z,72.28
2023-05-19T09:11:47.537Z,71.88
2023-05-19T09:14:15.433Z,71.11
2023-05-19T09:16:46.024Z,70.01
2023-05-19T09:19:17.719Z,65.96
2023-05-19T09:21:46.755Z,61.59
2023-05-19T09:24:14.726Z,62.80
2023-05-19T09:26:43.558Z,66.00
2023-05-19T09:29:16.950Z,65.98
2023-05-19T09:31:54.874Z,66.67
2023-05-19T09:34:25.339Z,65.76
2023-05-19T09:36:54.467Z,61.72
2023-05-19T09:39:26.297Z,63.76
2023-05-19T09:41:56.525Z,63.10
2023-05-19T09:44:29.961Z,63.48
2023-05-19T09:46:59.104Z,63.57
2023-05-19T09:49:33.125Z,63.36
2023-05-19T09:52:04.519Z,63.06
2023-05-19T09:54:34.879Z,61.15
2023-05-19T09:57:07.767Z,60.38
2023-05-19T09:59:39.340Z,60.90
2023-05-19T10:02:16.161Z,62.20
2023-05-19T10:04:46.365Z,63.36
2023-05-19T10:07:16.309Z,62.74
2023-05-19T10:09:45.635Z,65.15
2023-05-19T10:12:14.047Z,65.06
2023-05-19T10:14:42.487Z,64.08
2023-05-19T10:17:13.018Z,61.79
2023-05-19T10:19:41.818Z,61.71
2023-05-19T10:22:10.247Z,63.19
2023-05-19T10:24:38.398Z,63.61
2023-05-19T10:27:14.841Z,63.77
2023-05-19T10:29:49.124Z,63.14
2023-05-19T10:32:27.316Z,63.09
2023-05-19T10:35:16.710Z,62.79
2023-05-19T10:37:46.963Z,62.16
2023-05-19T10:40:41.526Z,59.80
2023-05-19T10:43:12.443Z,57.26
2023-05-19T10:45:53.458Z,54.95
2023-05-19T10:48:23.416Z,58.99
2023-05-19T10:50:56.950Z,60.69
2023-05-19T10:53:31.522Z,60.91
2023-05-19T10:56:07.304Z,60.31
2023-05-19T10:58:44.402Z,59.61
2023-05-19T11:01:17.761Z,58.42
2023-05-19T11:03:52.453Z,57.08
2023-05-19T11:06:22.235Z,54.01
2023-05-19T11:09:10.895Z,54.09
2023-05-19T11:11:54.350Z,54.20
2023-05-19T11:14:23.667Z,55.78
2023-05-19T11:16:54.218Z,52.29
2023-05-19T11:19:35.947Z,50.15
2023-05-19T11:22:13.702Z,50.81
2023-05-19T11:24:50.517Z,50.43
2023-05-19T11:27:33.019Z,50.71
2023-05-19T11:30:02.524Z,50.84
2023-05-19T11:32:39.499Z,49.86
2023-05-19T11:35:08.518Z,51.76
2023-05-19T11:37:37.409Z,50.72
2023-05-19T11:40:07.636Z,52.49
2023-05-19T11:42:37.423Z,52.93
2023-05-19T11:45:07.141Z,52.17
2023-05-19T11:47:50.964Z,51.20
2023-05-19T11:50:25.427Z,51.08
2023-05-19T11:52:56.196Z,53.08
2023-05-19T11:55:25.643Z,50.14
2023-05-19T11:58:04.970Z,49.92
2023-05-19T12:00:42.224Z,47.25
2023-05-19T12:03:11.071Z,46.45
2023-05-19T12:05:44.356Z,45.06
2023-05-19T12:08:13.512Z,45.95
2023-05-19T12:10:42.089Z,44.83
2023-05-19T12:13:10.700Z,44.99
2023-05-19T12:15:39.770Z,44.55
2023-05-19T12:18:08.169Z,45.18
2023-05-19T12:20:36.530Z,45.93
2023-05-19T12:23:05.591Z,46.49
2023-05-19T12:25:34.530Z,45.83
2023-05-19T12:28:06.916Z,44.77
2023-05-19T12:30:35.899Z,45.18
2023-05-19T12:33:04.395Z,44.94
2023-05-19T12:35:34.416Z,44.83
2023-05-19T12:38:07.479Z,45.22
2023-05-19T12:40:36.905Z,46.90
2023-05-19T12:43:05.880Z,45.04
2023-05-19T12:45:43.176Z,44.74
2023-05-19T12:48:18.462Z,45.21
2023-05-19T12:50:46.814Z,45.03
2023-05-19T12:53:16.029Z,44.23
2023-05-19T12:55:45.370Z,44.99
2023-05-19T12:58:13.953Z,43.75
2023-05-19T13:00:45.446Z,41.84
2023-05-19T13:03:22.421Z,42.09
2023-05-19T13:05:51.758Z,42.98
2023-05-19T13:08:21.963Z,41.96
2023-05-19T13:11:03.486Z,41.20
2023-05-19T13:16:25.456Z,40.24
2023-05-19T13:18:53.954Z,40.78
2023-05-19T13:21:22.306Z,40.57
2023-05-19T13:23:50.739Z,41.58
2023-05-19T13:26:20.373Z,44.36
2023-05-19T13:28:48.712Z,41.88
2023-05-19T13:31:19.017Z,45.55
2023-05-19T13:33:47.230Z,43.40
2023-05-19T13:36:15.316Z,44.54
2023-05-19T13:38:45.279Z,42.80
2023-05-19T13:41:16.068Z,42.71
2023-05-19T13:43:44.709Z,43.90
2023-05-19T13:46:12.872Z,41.43
2023-05-19T13:48:40.964Z,42.46
2023-05-19T13:51:09.547Z,42.16
2023-05-19T13:53:37.706Z,42.70
2023-05-19T13:56:05.919Z,41.22
2023-05-19T13:58:34.690Z,41.98
2023-05-19T14:01:02.957Z,41.34
2023-05-19T14:03:31.779Z,41.51
2023-05-19T14:06:00.065Z,41.41
2023-05-19T14:08:28.675Z,41.27
2023-05-19T14:10:57.526Z,40.71
2023-05-19T14:13:33.055Z,41.11
2023-05-19T14:16:03.943Z,41.75
2023-05-19T14:18:32.982Z,41.88
2023-05-19T14:21:16.753Z,42.21
2023-05-19T14:23:45.366Z,42.35
2023-05-19T14:26:13.633Z,41.31
2023-05-19T14:28:42.679Z,42.34
2023-05-19T14:31:15.559Z,42.03
2023-05-19T14:33:51.712Z,42.14
2023-05-19T14:36:39.082Z,41.93
2023-05-19T14:39:07.556Z,39.89
2023-05-19T14:41:41.445Z,41.68
2023-05-19T14:44:10.073Z,41.06
2023-05-19T14:46:38.439Z,39.75
2023-05-19T14:49:07.008Z,39.92
2023-05-19T14:51:35.628Z,37.92
2023-05-19T14:54:15.536Z,38.76
2023-05-19T14:56:44.010Z,38.35
2023-05-19T14:59:15.671Z,38.25
2023-05-19T15:01:44.386Z,38.19
2023-05-19T15:04:12.538Z,36.42
2023-05-19T15:07:05.913Z,35.71
2023-05-19T15:09:38.302Z,35.97
2023-05-19T15:12:06.672Z,35.46
2023-05-19T15:14:34.852Z,35.89
2023-05-19T15:17:03.490Z,37.24
2023-05-19T15:19:43.898Z,37.22
2023-05-19T15:22:12.428Z,37.62
2023-05-19T15:24:41.681Z,37.55
2023-05-19T15:27:10.092Z,37.53
2023-05-19T15:29:38.647Z,38.08
2023-05-19T15:32:07.408Z,37.90
2023-05-19T15:34:35.976Z,37.89
2023-05-19T15:37:04.734Z,38.04
2023-05-19T15:39:34.357Z,38.86
2023-05-19T15:42:02.799Z,38.34
2023-05-19T15:44:31.384Z,39.29
2023-05-19T15:46:59.868Z,39.07
2023-05-19T15:49:40.161Z,38.88
2023-05-19T15:52:08.868Z,38.88
2023-05-19T15:54:37.183Z,38.79
2023-05-19T15:57:05.629Z,39.29
2023-05-19T15:59:34.262Z,39.48
2023-05-19T16:02:08.039Z,39.58
2023-05-19T16:04:41.131Z,40.21
2023-05-19T16:07:17.671Z,40.23
2023-05-19T16:09:46.279Z,39.39
2023-05-19T16:12:14.485Z,39.42
2023-05-19T16:14:42.854Z,39.07
2023-05-19T16:17:12.272Z,37.83
2023-05-19T16:19:52.485Z,35.63
2023-05-19T16:22:25.048Z,34.52
2023-05-19T16:24:53.356Z,35.10
2023-05-19T16:27:21.954Z,36.27
2023-05-19T16:29:50.265Z,38.23
2023-05-19T16:32:18.293Z,39.08
2023-05-19T16:34:46.552Z,40.61
2023-05-19T16:37:14.712Z,40.95
2023-05-19T16:39:44.247Z,41.07
2023-05-19T16:42:12.797Z,41.89
2023-05-19T16:44:40.877Z,42.19
2023-05-19T16:47:11.833Z,42.21
2023-05-19T16:49:52.572Z,42.00
2023-05-19T16:52:21.147Z,43.05
2023-05-19T16:54:49.264Z,42.38
2023-05-19T16:57:18.008Z,42.29
2023-05-19T16:59:46.229Z,43.30
2023-05-19T17:02:15.164Z,43.09
2023-05-19T17:07:42.668Z,45.14
2023-05-19T17:10:11.465Z,44.30
2023-05-19T17:12:41.998Z,47.51
2023-05-19T17:15:11.447Z,46.48
2023-05-19T17:17:39.603Z,45.65
2023-05-19T17:20:08.622Z,46.28
2023-05-19T17:22:37.517Z,46.36
2023-05-19T17:25:18.548Z,45.41
2023-05-19T17:27:48.825Z,46.31
2023-05-19T17:30:17.196Z,46.56
2023-05-19T17:32:45.611Z,46.91
2023-05-19T17:35:14.407Z,47.25
2023-05-19T17:37:54.583Z,47.74
2023-05-19T17:40:23.542Z,47.73
2023-05-19T17:42:51.920Z,48.44
2023-05-19T17:45:20.139Z,48.63
2023-05-19T17:47:48.696Z,48.98
2023-05-19T17:50:41.644Z,49.28
2023-05-19T17:53:12.431Z,49.58
2023-05-19T17:55:53.103Z,50.10
2023-05-19T17:58:21.906Z,50.88
2023-05-19T18:00:50.362Z,51.13
2023-05-19T18:03:19.717Z,51.83
2023-05-19T18:05:50.550Z,52.13
2023-05-19T18:08:19.660Z,51.85
2023-05-19T18:10:49.079Z,53.68
2023-05-19T18:13:17.369Z,55.64
2023-05-19T18:15:46.065Z,58.48
2023-05-19T18:18:14.413Z,57.78
2023-05-19T18:20:45.306Z,56.99
2023-05-19T18:23:13.868Z,57.31
2023-05-19T18:25:42.169Z,55.01
2023-05-19T18:28:10.696Z,54.21
2023-05-19T18:30:39.902Z,55.11
2023-05-19T18:33:08.703Z,55.85
2023-05-19T18:35:37.530Z,55.09
2023-05-19T18:38:06.220Z,55.28
2023-05-19T18:40:35.321Z,55.83
2023-05-19T18:43:03.625Z,55.13
2023-05-19T18:45:32.296Z,55.77
2023-05-19T18:48:00.624Z,55.55
2023-05-19T18:50:29.083Z,56.12
2023-05-19T18:52:57.706Z,56.41
2023-05-19T18:55:26.060Z,56.84
2023-05-19T18:57:54.869Z,56.95
2023-05-19T19:00:23.572Z,56.80
2023-05-19T19:02:51.805Z,57.64
2023-05-19T19:05:21.795Z,58.02
2023-05-19T19:08:00.291Z,57.96
2023-05-19T19:10:29.291Z,58.09
2023-05-19T19:12:58.504Z,58.19
2023-05-19T19:15:29.222Z,58.22
2023-05-19T19:17:57.806Z,58.69
2023-05-19T19:20:42.231Z,59.21
2023-05-19T19:23:10.585Z,59.75
2023-05-19T19:25:39.243Z,59.20
2023-05-19T19:28:07.875Z,58.57
2023-05-19T19:30:36.454Z,59.88
2023-05-19T19:33:06.664Z,60.26
2023-05-19T19:35:35.444Z,60.42
2023-05-19T19:38:03.655Z,60.36
2023-05-19T19:40:33.177Z,60.18
2023-05-19T19:43:02.125Z,59.91
2023-05-19T19:45:31.068Z,60.37
2023-05-19T19:47:59.866Z,59.99
2023-05-19T19:50:28.396Z,60.23
2023-05-19T19:52:56.785Z,59.69
2023-05-19T19:55:25.543Z,59.76
2023-05-19T19:58:09.010Z,59.52
2023-05-19T20:00:39.221Z,59.60
2023-05-19T20:03:08.366Z,59.49
2023-05-19T20:05:38.479Z,59.36
2023-05-19T20:08:20.457Z,59.49
2023-05-19T20:10:48.994Z,59.23
2023-05-19T20:13:17.940Z,59.73
2023-05-19T20:15:47.036Z,59.60
2023-05-19T20:18:16.239Z,59.86
2023-05-19T20:20:44.558Z,60.09
2023-05-19T20:23:13.700Z,60.10
2023-05-19T20:25:54.453Z,60.79
2023-05-19T20:28:32.088Z,60.94
2023-05-19T20:31:01.018Z,61.02
2023-05-19T20:33:29.341Z,61.17
2023-05-19T20:35:57.400Z,61.14
2023-05-19T20:38:26.119Z,61.56
2023-05-19T20:40:55.364Z,61.54
2023-05-19T20:43:23.492Z,61.23
2023-05-19T20:45:52.031Z,62.15
2023-05-19T20:48:20.220Z,62.62
2023-05-19T20:50:48.419Z,62.68
2023-05-19T20:53:21.877Z,62.49
2023-05-19T20:55:50.051Z,62.98
2023-05-19T20:58:18.592Z,63.50
2023-05-19T21:00:46.644Z,63.29
2023-05-19T21:03:14.810Z,63.13
2023-05-19T21:05:43.456Z,63.22
2023-05-19T21:08:13.113Z,63.49
2023-05-19T21:10:41.351Z,63.74
2023-05-19T21:13:09.849Z,63.74
2023-05-19T21:15:37.980Z,64.07
2023-05-19T21:18:07.292Z,64.11
2023-05-19T21:20:36.139Z,63.49
2023-05-19T21:23:04.597Z,64.16
2023-05-19T21:25:32.552Z,65.07
2023-05-19T21:28:00.869Z,64.97
2023-05-19T21:30:28.885Z,65.66
2023-05-19T21:35:42.909Z,66.79
2023-05-19T21:38:22.746Z,66.63
2023-05-19T21:40:53.356Z,66.62
2023-05-19T21:43:22.176Z,67.70
2023-05-19T21:45:50.257Z,67.14
2023-05-19T21:48:18.939Z,67.51
2023-05-19T21:50:46.866Z,67.85
2023-05-19T21:53:14.832Z,66.67
2023-05-19T21:55:44.049Z,67.30
2023-05-19T21:58:12.325Z,67.36
2023-05-19T22:00:40.889Z,68.54
2023-05-19T22:03:09.395Z,68.93
2023-05-19T22:05:38.516Z,68.21
2023-05-19T22:08:06.520Z,68.24
2023-05-19T22:10:35.796Z,69.20
2023-05-19T22:13:03.904Z,69.81
2023-05-19T22:15:31.955Z,69.37
2023-05-19T22:18:00.250Z,69.70
2023-05-19T22:20:28.309Z,70.01
2023-05-19T22:22:57.746Z,69.78
2023-05-19T22:25:26.245Z,70.97
2023-05-19T22:27:54.593Z,71.81
2023-05-19T22:30:22.859Z,72.59
2023-05-19T22:32:51.213Z,72.04
2023-05-19T22:35:19.465Z,71.26
2023-05-19T22:37:47.395Z,71.54
2023-05-19T22:40:15.857Z,71.49
2023-05-19T22:42:43.771Z,72.14
2023-05-19T22:45:12.057Z,72.63
2023-05-19T22:47:40.852Z,72.90
2023-05-19T22:50:12.722Z,73.55
2023-05-19T22:52:41.557Z,73.50
2023-05-19T22:55:10.093Z,72.23
2023-05-19T22:57:38.200Z,73.98
2023-05-19T23:00:07.374Z,73.78
2023-05-19T23:02:35.352Z,74.37
2023-05-19T23:05:03.224Z,72.36
2023-05-19T23:07:32.330Z,74.54
2023-05-19T23:10:00.269Z,75.31
2023-05-19T23:12:28.202Z,76.09
2023-05-19T23:14:56.534Z,75.59
2023-05-19T23:17:24.533Z,76.41
2023-05-19T23:19:52.615Z,76.85
2023-05-19T23:22:21.071Z,76.29
2023-05-19T23:24:49.137Z,76.04
2023-05-19T23:27:17.164Z,75.79
2023-05-19T23:29:51.846Z,77.55
2023-05-19T23:32:19.919Z,77.26
2023-05-19T23:34:49.127Z,79.92
2023-05-19T23:37:17.282Z,79.74
2023-05-19T23:39:45.370Z,80.70
2023-05-19T23:42:13.778Z,81.22
2023-05-19T23:44:41.829Z,80.63
2023-05-19T23:47:10.041Z,80.47
2023-05-19T23:49:38.539Z,81.50
2023-05-19T23:52:06.793Z,81.65
2023-05-19T23:54:34.743Z,81.88
2023-05-19T23:57:03.607Z,82.01
2023-05-19T23:59:31.629Z,80.33
